Time;durP1;ratioP1;P1;durP2;ratioP2;P2;SDS_P1;SDS_P2;PMS_P1;PMS_P2;Temp;Humidity;BMP_temperature;BMP_pressure;BME280_temperature;BME280_humidity;BME280_pressure;Samples;Min_cycle;Max_cycle;Signal;HPM_P1;HPM_P2
2023/07/28 00:01:59;;;;;;;4.70;4.30;;;;;;;19.36;46.99;99363.88;5003472;28;20144;-75
2023/07/28 00:04:25;;;;;;;5.03;4.63;;;;;;;19.52;46.58;99369.22;5013594;28;20088;-75
2023/07/28 00:06:51;;;;;;;5.40;4.57;;;;;;;19.52;46.33;99366.38;5014950;28;20018;-75
2023/07/28 00:09:16;;;;;;;6.57;4.88;;;;;;;19.59;46.34;99374.09;5013343;28;20477;-75
2023/07/28 00:11:41;;;;;;;4.53;4.13;;;;;;;19.57;46.50;99376.53;5013769;28;20413;-75
2023/07/28 00:14:07;;;;;;;5.18;4.55;;;;;;;19.60;46.28;99381.41;5013633;28;20045;-75
2023/07/28 00:16:32;;;;;;;4.80;4.38;;;;;;;19.57;46.67;99379.38;5012659;28;20037;-75
2023/07/28 00:18:58;;;;;;;6.38;5.78;;;;;;;19.53;46.16;99378.53;5011539;28;20120;-75
2023/07/28 00:21:23;;;;;;;5.30;4.80;;;;;;;18.81;47.86;99371.19;5014221;28;20033;-75
2023/07/28 00:23:49;;;;;;;24.45;5.55;;;;;;;18.73;47.93;99373.16;5014124;28;20030;-75
2023/07/28 00:26:14;;;;;;;7.13;4.50;;;;;;;18.50;48.42;99362.88;5013833;28;20468;-75
2023/07/28 00:28:40;;;;;;;4.55;4.15;;;;;;;18.63;47.33;99357.72;5014386;28;20033;-75
2023/07/28 00:31:05;;;;;;;5.07;4.47;;;;;;;18.59;47.66;99358.91;5013780;28;20033;-75
2023/07/28 00:33:30;;;;;;;10.98;4.57;;;;;;;18.60;47.22;99369.03;5009702;28;20501;-75
2023/07/28 00:35:56;;;;;;;6.10;4.10;;;;;;;18.64;47.00;99361.34;5013106;28;20424;-75
2023/07/28 00:38:21;;;;;;;8.00;4.32;;;;;;;18.50;47.38;99362.09;5012642;28;20072;-75
2023/07/28 00:40:47;;;;;;;4.93;4.53;;;;;;;17.99;48.32;99367.25;5009862;28;20038;-75
2023/07/28 00:43:12;;;;;;;5.15;4.65;;;;;;;17.75;48.78;99371.41;5013778;28;20091;-75
2023/07/28 00:45:38;;;;;;;6.32;4.57;;;;;;;17.68;49.16;99366.50;5013409;28;20022;-75
2023/07/28 00:48:09;;;;;;;6.03;4.70;;;;;;;17.50;49.65;99371.94;5006719;28;20018;-75
2023/07/28 00:50:35;;;;;;;5.43;5.00;;;;;;;17.41;50.19;99369.41;5013268;28;20037;-75
2023/07/28 00:53:00;;;;;;;4.45;4.05;;;;;;;17.39;50.35;99366.94;5012219;28;20034;-75
2023/07/28 00:55:26;;;;;;;5.00;4.60;;;;;;;17.24;50.52;99365.16;5006104;28;20092;-75
2023/07/28 00:57:52;;;;;;;6.60;5.70;;;;;;;17.23;50.89;99363.53;4992116;28;20402;-75
2023/07/28 01:00:17;;;;;;;5.88;5.20;;;;;;;17.03;51.48;99354.38;5012335;28;20072;-75
2023/07/28 01:02:43;;;;;;;6.53;5.20;;;;;;;17.11;51.36;99356.91;4997779;28;20041;-75
2023/07/28 01:05:09;;;;;;;5.65;5.00;;;;;;;17.40;50.96;99370.59;4993757;28;20018;-75
2023/07/28 01:08:02;;;;;;;6.57;5.43;;;;;;;16.94;51.75;99363.06;4993601;28;20026;-75
2023/07/28 01:10:32;;;;;;;8.20;5.22;;;;;;;16.79;52.49;99360.03;5010294;28;20493;-75
2023/07/28 01:12:58;;;;;;;6.10;5.50;;;;;;;16.75;52.54;99355.53;5012920;28;20053;-75
2023/07/28 01:15:23;;;;;;;5.10;4.70;;;;;;;16.76;52.59;99351.50;5012970;28;20058;-75
2023/07/28 01:17:49;;;;;;;7.40;5.28;;;;;;;16.64;52.80;99350.53;5012917;28;20026;-75
2023/07/28 01:20:15;;;;;;;6.07;5.47;;;;;;;16.55;53.16;99350.00;5012013;28;20049;-75
2023/07/28 01:22:58;;;;;;;10.93;6.78;;;;;;;16.45;53.52;99348.59;5012854;28;20104;-75
2023/07/28 01:25:47;;;;;;;5.63;5.13;;;;;;;16.42;53.80;99350.19;4995348;28;20505;-75
2023/07/28 01:28:13;;;;;;;7.45;5.13;;;;;;;16.74;53.00;99368.84;5003119;28;20026;-75
2023/07/28 01:30:38;;;;;;;6.13;5.53;;;;;;;17.05;52.52;99361.25;5012759;28;20018;-75
2023/07/28 01:33:08;;;;;;;6.32;5.47;;;;;;;17.25;51.91;99356.28;5012765;28;20022;-75
2023/07/28 01:35:34;;;;;;;5.90;5.30;;;;;;;17.36;52.10;99364.06;5012837;28;20512;-75
2023/07/28 01:37:59;;;;;;;4.90;4.50;;;;;;;17.44;52.08;99357.31;5004356;28;20107;-75
2023/07/28 01:40:25;;;;;;;7.53;4.75;;;;;;;17.63;51.59;99364.03;5011924;28;20488;-75
2023/07/28 01:42:50;;;;;;;5.00;4.60;;;;;;;17.46;51.96;99359.78;5011874;28;20018;-75
2023/07/28 01:45:16;;;;;;;6.78;5.30;;;;;;;17.05;52.76;99352.78;5011111;28;20033;-75
2023/07/28 01:47:41;;;;;;;6.97;5.10;;;;;;;16.91;53.31;99359.00;5012948;28;20021;-75
2023/07/28 01:50:07;;;;;;;6.25;5.50;;;;;;;16.46;54.33;99355.09;5011849;28;20022;-75
2023/07/28 01:52:32;;;;;;;6.20;5.63;;;;;;;16.37;54.64;99355.34;4999416;28;20578;-75
2023/07/28 01:54:58;;;;;;;11.75;6.10;;;;;;;16.25;55.34;99342.22;4992555;28;20449;-75
2023/07/28 01:57:27;;;;;;;7.13;5.90;;;;;;;16.22;55.23;99345.81;4995406;28;20022;-75
2023/07/28 01:59:53;;;;;;;8.88;5.78;;;;;;;16.26;55.61;99357.97;5011026;28;20025;-75
2023/07/28 02:02:18;;;;;;;7.57;5.50;;;;;;;16.45;54.95;99359.91;5012266;28;20117;-75
2023/07/28 02:04:43;;;;;;;8.20;5.45;;;;;;;16.48;55.03;99367.63;5012175;28;20077;-75
2023/07/28 02:07:09;;;;;;;5.60;5.10;;;;;;;16.18;56.08;99356.22;5012148;28;20057;-75
2023/07/28 02:09:34;;;;;;;6.63;5.78;;;;;;;15.94;56.46;99355.41;5011664;28;20136;-75
2023/07/28 02:12:00;;;;;;;6.88;6.18;;;;;;;15.83;57.01;99358.81;5003403;28;20034;-75
2023/07/28 02:14:25;;;;;;;10.40;6.13;;;;;;;16.00;56.82;99363.19;4992488;28;20022;-75
2023/07/28 02:16:50;;;;;;;7.80;5.53;;;;;;;16.46;55.76;99360.72;5004914;28;20548;-75
2023/07/28 02:19:16;;;;;;;6.85;5.68;;;;;;;16.72;54.53;99367.59;5011845;28;20096;-75
2023/07/28 02:21:41;;;;;;;6.50;5.10;;;;;;;16.94;53.99;99375.19;5012138;28;20032;-75
2023/07/28 02:24:07;;;;;;;5.55;5.05;;;;;;;17.11;53.45;99370.19;4996837;28;20030;-75
2023/07/28 02:26:32;;;;;;;7.15;5.28;;;;;;;17.22;53.14;99373.19;4993431;28;20033;-75
2023/07/28 02:28:58;;;;;;;12.20;6.05;;;;;;;17.25;52.52;99364.78;4998000;28;20026;-75
2023/07/28 02:31:23;;;;;;;8.85;5.00;;;;;;;17.29;52.65;99364.00;5010884;28;20022;-75
2023/07/28 02:33:49;;;;;;;6.68;5.40;;;;;;;17.48;52.82;99380.00;5011222;28;20045;-75
2023/07/28 02:36:14;;;;;;;6.65;5.93;;;;;;;17.21;53.85;99377.22;5012013;28;20029;-75
2023/07/28 02:38:39;;;;;;;7.25;5.40;;;;;;;17.18;53.68;99375.13;5008034;28;20041;-75
2023/07/28 02:41:05;;;;;;;6.82;6.13;;;;;;;17.41;52.92;99375.06;5010983;28;20029;-75
2023/07/28 02:43:30;;;;;;;9.07;6.38;;;;;;;17.26;52.98;99366.41;5012663;28;20029;-75
2023/07/28 02:45:57;;;;;;;6.78;6.18;;;;;;;17.35;52.70;99371.75;5012090;28;20026;-75
2023/07/28 02:48:23;;;;;;;6.50;5.90;;;;;;;17.39;52.65;99368.97;5011806;28;20022;-75
2023/07/28 02:50:52;;;;;;;7.88;5.88;;;;;;;17.46;52.22;99371.09;5010028;28;20560;-75
2023/07/28 02:53:18;;;;;;;7.00;5.72;;;;;;;17.46;51.98;99357.75;5011815;28;20026;-75
2023/07/28 02:55:44;;;;;;;16.40;7.10;;;;;;;17.50;51.85;99371.94;5010524;28;20108;-75
2023/07/28 02:58:10;;;;;;;14.10;6.70;;;;;;;17.38;52.17;99370.19;5011916;28;20030;-75
2023/07/28 03:00:40;;;;;;;13.38;6.20;;;;;;;17.50;51.74;99383.25;4997509;28;20041;-75
2023/07/28 03:03:07;;;;;;;22.80;7.88;;;;;;;17.63;51.71;99378.16;4992560;28;20516;-75
2023/07/28 03:05:32;;;;;;;13.68;6.90;;;;;;;17.63;51.54;99381.78;4992333;28;20033;-75
2023/07/28 03:07:58;;;;;;;21.83;7.28;;;;;;;17.33;51.99;99381.81;5011647;28;20030;-75
2023/07/28 03:10:24;;;;;;;10.25;7.03;;;;;;;16.89;52.79;99381.16;5012155;28;20047;-75
2023/07/28 03:12:50;;;;;;;13.90;6.53;;;;;;;16.90;52.75;99370.69;5012084;28;20034;-75
2023/07/28 03:15:15;;;;;;;20.88;6.55;;;;;;;17.18;52.20;99378.78;5012016;28;20033;-75
2023/07/28 03:17:41;;;;;;;9.10;5.63;;;;;;;16.98;52.23;99376.06;5031180;28;20041;-75
2023/07/28 03:20:07;;;;;;;8.95;5.20;;;;;;;16.76;53.06;99380.56;5003438;28;20516;-75
2023/07/28 03:22:32;;;;;;;7.55;5.65;;;;;;;16.89;52.54;99378.34;5022067;28;20551;-75
2023/07/28 03:24:57;;;;;;;5.95;5.25;;;;;;;16.79;52.94;99379.81;5015542;28;20161;-75
2023/07/28 03:27:24;;;;;;;18.83;6.60;;;;;;;16.66;53.54;99378.38;5015512;28;20025;-75
2023/07/28 03:29:50;;;;;;;28.80;6.60;;;;;;;16.16;54.46;99379.16;5007412;28;20054;-75
2023/07/28 03:32:15;;;;;;;11.50;6.50;;;;;;;15.96;55.43;99384.03;4995516;28;20053;-75
2023/07/28 03:34:41;;;;;;;5.57;5.07;;;;;;;15.77;55.99;99399.75;4995370;28;20046;-75
2023/07/28 03:37:06;;;;;;;14.00;5.68;;;;;;;15.57;56.50;99396.97;5003417;28;20025;-75
2023/07/28 03:39:32;;;;;;;7.65;6.18;;;;;;;15.46;57.13;99390.28;5012266;28;20030;-75
2023/07/28 03:41:57;;;;;;;10.80;5.70;;;;;;;15.67;56.99;99411.63;5014005;28;20146;-75
2023/07/28 03:44:23;;;;;;;8.27;5.90;;;;;;;15.78;56.20;99395.75;5015480;28;20026;-75
2023/07/28 03:46:49;;;;;;;9.52;6.07;;;;;;;15.77;55.86;99399.75;5012659;28;20033;-76
2023/07/28 03:49:14;;;;;;;11.77;6.30;;;;;;;15.94;56.52;99401.31;5012869;28;20413;-76
2023/07/28 03:51:40;;;;;;;9.10;6.30;;;;;;;15.85;55.69;99410.00;5016343;28;20029;-76
2023/07/28 03:54:05;;;;;;;11.82;6.35;;;;;;;15.88;56.28;99416.06;5012384;28;20029;-81
2023/07/28 03:56:31;;;;;;;16.63;6.00;;;;;;;16.20;55.59;99399.00;5014156;28;20033;-82
2023/07/28 03:58:56;;;;;;;10.68;6.55;;;;;;;16.51;54.80;99402.75;5006356;28;20481;-78
2023/07/28 04:01:22;;;;;;;10.95;5.55;;;;;;;16.53;54.21;99408.81;5014707;28;20034;-78
2023/07/28 04:03:48;;;;;;;15.98;7.00;;;;;;;16.24;55.48;99416.78;5014823;28;20076;-81
2023/07/28 04:06:13;;;;;;;9.45;5.88;;;;;;;16.08;55.83;99414.06;5014063;28;20030;-81
2023/07/28 04:08:39;;;;;;;12.95;5.55;;;;;;;16.08;55.88;99414.91;4999045;28;20113;-81
2023/07/28 04:11:05;;;;;;;14.27;6.75;;;;;;;15.78;56.35;99418.31;5012288;28;20026;-81
2023/07/28 04:13:31;;;;;;;9.27;6.25;;;;;;;15.96;55.46;99418.69;5014140;28;20076;-81
2023/07/28 04:15:56;;;;;;;8.52;6.50;;;;;;;16.09;55.90;99422.16;5013211;28;20022;-78
2023/07/28 04:18:23;;;;;;;6.20;5.60;;;;;;;16.11;56.11;99419.00;5013296;28;20456;-79
2023/07/28 04:20:48;;;;;;;12.40;5.90;;;;;;;16.25;56.07;99424.06;5013843;28;20026;-79
2023/07/28 04:23:14;;;;;;;13.70;6.50;;;;;;;16.31;56.15;99419.75;5011747;28;20497;-78
2023/07/28 04:25:39;;;;;;;20.30;6.57;;;;;;;16.55;55.17;99423.41;5001957;28;20030;-79
2023/07/28 04:28:04;;;;;;;8.38;6.30;;;;;;;16.46;55.41;99411.53;5014379;28;20013;-79
2023/07/28 04:30:30;;;;;;;11.25;6.30;;;;;;;16.50;55.39;99418.06;5012698;28;20022;-79
2023/07/28 04:32:55;;;;;;;18.88;7.10;;;;;;;16.55;55.93;99427.03;5011852;28;20074;-78
2023/07/28 04:35:21;;;;;;;10.93;6.65;;;;;;;16.77;53.90;99432.22;4993711;28;20053;-79
2023/07/28 04:37:46;;;;;;;10.07;6.05;;;;;;;16.67;54.44;99437.31;4993564;28;20042;-79
2023/07/28 04:40:12;;;;;;;10.57;6.25;;;;;;;16.91;53.60;99438.13;5004978;28;20501;-79
2023/07/28 04:42:37;;;;;;;13.13;6.20;;;;;;;16.93;53.53;99430.06;5013211;28;20026;-78
2023/07/28 04:45:04;;;;;;;10.77;6.38;;;;;;;17.03;53.36;99436.31;5012266;28;20040;-79
2023/07/28 04:47:29;;;;;;;15.93;6.85;;;;;;;17.05;53.27;99434.72;5013227;28;20018;-79
2023/07/28 04:49:55;;;;;;;8.05;6.78;;;;;;;17.09;52.88;99435.59;5012951;28;20084;-79
2023/07/28 04:52:20;;;;;;;17.65;8.48;;;;;;;17.20;52.15;99427.25;5011629;28;20509;-79
2023/07/28 04:54:45;;;;;;;48.85;22.63;;;;;;;17.25;52.50;99420.47;5013566;28;20024;-79
2023/07/28 04:57:11;;;;;;;12.70;6.13;;;;;;;17.03;53.04;99419.34;5010911;28;20032;-78
2023/07/28 04:59:37;;;;;;;13.15;6.32;;;;;;;17.11;53.07;99419.06;5002018;28;20030;-78
2023/07/28 05:02:02;;;;;;;9.38;5.55;;;;;;;16.86;53.00;99398.88;5011271;28;20030;-78
2023/07/28 05:04:28;;;;;;;6.53;5.38;;;;;;;17.25;53.14;99435.44;5013542;28;20045;-75
2023/07/28 05:06:53;;;;;;;11.07;5.38;;;;;;;17.22;52.47;99430.53;4995920;28;20030;-74
2023/07/28 05:09:19;;;;;;;12.55;6.25;;;;;;;17.48;51.82;99440.16;4994021;28;20030;-77
2023/07/28 05:11:44;;;;;;;8.50;5.82;;;;;;;17.53;51.88;99437.03;5006438;28;20021;-78
2023/07/28 05:14:09;;;;;;;8.57;5.45;;;;;;;17.55;51.64;99433.78;5013506;28;20036;-78
2023/07/28 05:16:35;;;;;;;10.57;5.63;;;;;;;17.84;50.97;99445.47;5011824;28;20037;-78
2023/07/28 05:19:00;;;;;;;7.75;5.20;;;;;;;17.94;49.97;99443.97;5012621;28;20026;-78
2023/07/28 05:21:26;;;;;;;11.23;5.35;;;;;;;18.07;50.05;99445.38;5005635;28;20421;-78
2023/07/28 05:23:51;;;;;;;8.13;4.90;;;;;;;18.11;49.92;99439.75;4993593;28;20022;-78
2023/07/28 05:26:17;;;;;;;7.25;5.25;;;;;;;18.25;48.91;99444.78;4991806;28;20478;-78
2023/07/28 05:28:42;;;;;;;7.80;4.70;;;;;;;18.36;48.38;99434.38;4991861;28;20026;-78
2023/07/28 05:31:08;;;;;;;9.80;4.90;;;;;;;18.42;48.74;99434.84;5010286;28;20025;-78
2023/07/28 05:33:34;;;;;;;11.80;4.70;;;;;;;18.78;47.91;99443.66;5006361;28;20497;-77
2023/07/28 05:36:03;;;;;;;5.88;4.28;;;;;;;19.04;47.07;99446.69;5002852;28;20409;-78
2023/07/28 05:38:29;;;;;;;8.65;4.45;;;;;;;19.20;46.46;99440.75;5010865;28;20489;-78
2023/07/28 05:41:02;;;;;;;8.07;4.65;;;;;;;19.27;46.20;99446.47;5011879;28;20037;-78
2023/07/28 05:43:31;;;;;;;7.88;4.72;;;;;;;19.31;45.95;99440.81;5011838;28;20026;-78
2023/07/28 05:46:01;;;;;;;15.90;4.50;;;;;;;19.55;45.70;99449.84;5013135;28;20054;-78
2023/07/28 05:48:26;;;;;;;6.40;3.97;;;;;;;19.73;45.46;99445.09;5012909;28;20100;-78
2023/07/28 05:50:53;;;;;;;11.82;5.13;;;;;;;19.75;44.33;99448.31;5008842;28;20509;-78
2023/07/28 05:53:22;;;;;;;13.57;4.22;;;;;;;19.98;44.22;99450.06;5000515;28;20028;-78
2023/07/28 05:55:48;;;;;;;5.72;3.97;;;;;;;19.89;43.07;99446.75;5007802;28;20116;-78
2023/07/28 05:58:14;;;;;;;6.65;3.75;;;;;;;19.92;42.88;99443.97;5028981;28;20152;-78
2023/07/28 06:00:40;;;;;;;11.77;6.90;;;;;;;19.99;42.61;99446.03;4995699;28;20061;-78
2023/07/28 06:03:07;;;;;;;6.75;4.82;;;;;;;20.15;41.90;99454.19;4991676;28;20022;-78
2023/07/28 06:05:32;;;;;;;6.75;5.47;;;;;;;20.20;41.59;99445.25;4993014;28;20109;-78
2023/07/28 06:07:58;;;;;;;7.18;4.63;;;;;;;20.30;41.83;99435.16;4996543;28;20112;-78
2023/07/28 06:10:23;;;;;;;5.07;3.63;;;;;;;20.59;41.12;99449.41;5012567;28;20036;-78
2023/07/28 06:12:48;;;;;;;6.65;4.00;;;;;;;20.69;41.32;99447.78;5011318;28;20026;-78
2023/07/28 06:15:14;;;;;;;9.43;3.85;;;;;;;20.73;41.56;99450.63;5010549;28;20084;-80
2023/07/28 06:17:39;;;;;;;4.50;3.20;;;;;;;20.60;39.27;99436.81;5005229;28;20033;-78
2023/07/28 06:20:06;;;;;;;37.90;5.72;;;;;;;21.16;39.77;99449.81;4997766;28;20029;-79
2023/07/28 06:22:31;;;;;;;8.20;4.68;;;;;;;21.59;39.79;99440.38;4999390;28;20029;-79
2023/07/28 06:24:57;;;;;;;8.63;4.10;;;;;;;21.45;38.84;99433.50;5010510;28;20033;-84
2023/07/28 06:27:22;;;;;;;8.98;3.65;;;;;;;21.54;38.30;99435.13;5006404;28;20026;-83
2023/07/28 06:29:47;;;;;;;4.53;3.22;;;;;;;21.51;37.81;99428.22;5007719;28;20037;-84
2023/07/28 06:32:13;;;;;;;5.03;2.92;;;;;;;21.59;36.78;99431.84;5026117;28;20417;-78
2023/07/28 06:34:38;;;;;;;3.92;3.40;;;;;;;21.91;36.43;99424.44;5010456;28;20068;-78
2023/07/28 06:37:04;;;;;;;12.25;3.28;;;;;;;21.94;35.84;99421.56;5011069;28;20029;-78
2023/07/28 06:39:30;;;;;;;7.70;3.47;;;;;;;22.22;35.97;99424.69;5009690;28;20022;-79
2023/07/28 06:41:55;;;;;;;5.43;3.08;;;;;;;22.13;35.65;99420.25;5010721;28;20026;-79
2023/07/28 06:44:21;;;;;;;6.68;3.25;;;;;;;21.90;35.50;99426.47;5009693;28;20076;-78
2023/07/28 06:46:47;;;;;;;5.78;2.75;;;;;;;22.03;35.93;99421.13;5026142;28;20021;-78
2023/07/28 06:49:15;;;;;;;3.80;3.13;;;;;;;22.25;35.67;99412.44;5011846;28;20037;-78
2023/07/28 06:51:41;;;;;;;5.55;2.47;;;;;;;22.46;34.80;99416.38;5010533;28;20026;-78
2023/07/28 06:54:11;;;;;;;6.63;3.00;;;;;;;22.72;34.70;99412.16;5010843;28;20037;-79
2023/07/28 06:56:36;;;;;;;;;;;;;;;23.20;34.90;99412.53;5011995;28;20104;-79
2023/07/28 06:59:02;;;;;;;4.80;2.92;;;;;;;23.08;34.90;99405.28;5012630;28;19937;-84
2023/07/28 07:01:27;;;;;;;2.58;2.00;;;;;;;23.09;33.83;99401.19;5011125;28;20460;-82
2023/07/28 07:03:53;;;;;;;5.63;2.35;;;;;;;23.58;34.20;99403.16;5011323;28;20527;-86
2023/07/28 07:06:18;;;;;;;6.10;3.45;;;;;;;23.84;32.88;99393.88;5011559;28;20030;-85
2023/07/28 07:08:44;;;;;;;5.85;3.05;;;;;;;24.03;32.76;99408.72;5008829;28;20700;-78
2023/07/28 07:11:09;;;;;;;4.57;2.17;;;;;;;24.18;32.25;99400.75;5011329;28;20457;-85
2023/07/28 07:13:34;;;;;;;7.07;1.95;;;;;;;24.10;33.94;99396.38;5005730;28;20026;-86
2023/07/28 07:16:00;;;;;;;6.80;2.45;;;;;;;24.37;33.54;99407.81;5008428;28;20068;-77
2023/07/28 07:18:26;;;;;;;6.47;2.60;;;;;;;24.46;31.05;99401.56;4988964;28;20030;-76
2023/07/28 07:20:51;;;;;;;2.30;1.50;;;;;;;24.72;33.54;99416.25;5001815;28;20044;-76
2023/07/28 07:23:17;;;;;;;4.03;2.03;;;;;;;24.73;31.61;99406.44;5007407;28;20032;-75
2023/07/28 07:25:42;;;;;;;4.10;2.03;;;;;;;25.02;32.45;99408.84;5007202;28;20030;-79
2023/07/28 07:28:11;;;;;;;7.15;1.90;;;;;;;25.22;31.92;99402.34;5007910;28;20025;-76
2023/07/28 07:30:36;;;;;;;2.47;2.17;;;;;;;25.39;33.49;99403.22;5007142;28;20025;-73
2023/07/28 07:33:02;;;;;;;5.88;2.30;;;;;;;25.11;30.42;99411.13;5007855;28;20030;-74
2023/07/28 07:35:27;;;;;;;4.57;2.63;;;;;;;25.12;29.56;99397.63;5000358;28;20110;-76
2023/07/28 07:37:54;;;;;;;3.45;2.60;;;;;;;24.88;30.15;99407.03;5009577;28;20516;-76
2023/07/28 07:40:19;;;;;;;4.13;2.00;;;;;;;25.31;31.78;99398.91;5010321;28;20040;-76
2023/07/28 07:42:49;;;;;;;2.80;1.88;;;;;;;25.15;31.49;99403.28;5010032;28;20080;-76
2023/07/28 07:45:15;;;;;;;3.43;2.40;;;;;;;25.37;29.58;99400.00;5009981;28;20515;-75
2023/07/28 07:47:46;;;;;;;7.03;2.00;;;;;;;24.75;30.04;99403.97;5009885;28;20497;-76
2023/07/28 07:50:13;;;;;;;3.90;1.85;;;;;;;25.02;30.33;99399.44;5004344;28;20037;-76
2023/07/28 07:52:39;;;;;;;2.67;2.10;;;;;;;25.16;29.46;99392.66;5010524;28;20099;-76
2023/07/28 07:55:06;;;;;;;3.45;1.80;;;;;;;25.39;28.41;99391.78;5010374;28;20034;-74
2023/07/28 07:57:32;;;;;;;2.45;2.25;;;;;;;25.82;29.59;99392.97;5009448;28;20539;-77
2023/07/28 07:59:58;;;;;;;3.78;2.08;;;;;;;26.16;29.94;99385.28;5012693;28;20061;-75
2023/07/28 08:02:24;;;;;;;9.40;4.05;;;;;;;25.93;30.83;99384.16;5014086;28;20038;-75
2023/07/28 08:04:50;;;;;;;7.75;4.43;;;;;;;25.78;28.96;99395.94;5012449;28;20088;-75
2023/07/28 08:07:16;;;;;;;2.30;2.10;;;;;;;25.86;28.68;99393.72;5014180;28;20404;-75
2023/07/28 08:09:41;;;;;;;4.63;2.28;;;;;;;25.88;28.10;99385.50;5010376;28;20022;-76
2023/07/28 08:12:08;;;;;;;2.63;2.42;;;;;;;24.93;28.74;99386.53;5012213;28;20429;-73
2023/07/28 08:14:34;;;;;;;5.90;3.63;;;;;;;25.64;30.51;99385.59;5013715;28;20492;-74
2023/07/28 08:16:59;;;;;;;2.85;2.30;;;;;;;25.93;30.55;99382.09;5013394;28;20129;-74
2023/07/28 08:19:25;;;;;;;5.53;2.65;;;;;;;26.23;28.76;99379.41;5013983;28;20459;-73
2023/07/28 08:21:51;;;;;;;15.05;2.78;;;;;;;26.56;28.92;99365.09;5011904;28;20030;-73
2023/07/28 08:24:17;;;;;;;4.45;1.90;;;;;;;26.41;27.95;99376.13;5011546;28;20034;-73
2023/07/28 08:26:42;;;;;;;3.70;1.83;;;;;;;26.57;27.64;99369.59;5012335;28;20021;-74
2023/07/28 08:29:07;;;;;;;3.13;2.33;;;;;;;26.89;28.58;99375.78;5006439;28;20018;-74
2023/07/28 08:31:33;;;;;;;1.98;1.52;;;;;;;27.04;28.97;99377.03;5005793;28;20026;-74
2023/07/28 08:33:58;;;;;;;2.95;1.65;;;;;;;26.94;27.84;99363.78;5008739;28;20111;-74
2023/07/28 08:36:24;;;;;;;1.95;1.73;;;;;;;27.11;28.96;99366.59;5011448;28;20489;-73
2023/07/28 08:38:49;;;;;;;4.80;1.98;;;;;;;27.48;27.37;99364.31;5012167;28;20025;-74
2023/07/28 08:41:15;;;;;;;3.47;2.28;;;;;;;27.61;27.50;99368.06;5012555;28;20025;-73
2023/07/28 08:43:41;;;;;;;3.15;2.20;;;;;;;27.67;26.75;99353.16;5013307;28;20026;-75
2023/07/28 08:46:06;;;;;;;5.43;1.92;;;;;;;27.87;26.60;99362.41;5009598;28;20065;-74
2023/07/28 08:48:32;;;;;;;5.10;2.33;;;;;;;27.81;24.79;99364.22;5012723;28;20112;-73
2023/07/28 08:50:57;;;;;;;3.22;1.77;;;;;;;27.40;24.01;99365.81;5012818;28;20095;-73
2023/07/28 08:53:23;;;;;;;5.13;1.88;;;;;;;27.75;24.85;99366.03;5013348;28;20029;-74
2023/07/28 08:55:48;;;;;;;3.63;2.35;;;;;;;27.91;25.77;99350.75;5012460;28;20034;-73
2023/07/28 08:58:23;;;;;;;2.00;1.65;;;;;;;28.09;25.60;99358.81;5011356;28;20037;-74
2023/07/28 09:00:50;;;;;;;3.80;1.90;;;;;;;28.25;24.99;99351.41;5007707;28;20033;-74
2023/07/28 09:03:17;;;;;;;2.13;1.92;;;;;;;28.48;26.42;99350.22;5005353;28;20038;-76
2023/07/28 09:05:44;;;;;;;3.00;2.05;;;;;;;28.31;24.30;99340.91;4993712;28;20557;-74
2023/07/28 09:08:10;;;;;;;3.85;1.98;;;;;;;27.03;24.57;99338.13;4994045;28;20061;-75
2023/07/28 09:10:49;;;;;;;3.13;2.22;;;;;;;27.36;24.46;99328.59;5005744;28;20108;-73
2023/07/28 09:13:17;;;;;;;6.17;2.87;;;;;;;28.15;25.20;99331.13;5003935;28;20038;-73
2023/07/28 09:15:43;;;;;;;6.45;2.70;;;;;;;28.24;28.73;99326.78;5009394;28;20037;-74
2023/07/28 09:18:10;;;;;;;5.85;2.28;;;;;;;28.63;24.21;99330.41;5000257;28;20061;-73
2023/07/28 09:20:43;;;;;;;4.38;2.05;;;;;;;28.14;23.47;99329.53;4999162;28;20076;-74
2023/07/28 09:23:10;;;;;;;2.28;1.75;;;;;;;28.18;25.12;99323.69;5009953;28;20030;-74
2023/07/28 09:25:37;;;;;;;2.30;1.80;;;;;;;28.49;24.92;99322.28;5009884;28;20034;-75
2023/07/28 09:28:04;;;;;;;2.05;1.48;;;;;;;28.88;24.60;99325.88;5013240;28;20507;-73
2023/07/28 09:30:45;;;;;;;2.22;1.50;;;;;;;28.92;26.22;99320.78;5004507;28;20516;-74
2023/07/28 09:33:10;;;;;;;1.83;1.65;;;;;;;28.51;23.98;99311.13;5000136;28;20029;-74
2023/07/28 09:35:47;;;;;;;1.65;1.55;;;;;;;28.08;23.90;99313.31;5012120;28;20097;-74
2023/07/28 09:38:14;;;;;;;2.50;2.03;;;;;;;28.54;24.16;99311.00;5012606;28;20029;-74
2023/07/28 09:40:41;;;;;;;2.30;1.70;;;;;;;29.13;23.25;99304.03;5011712;28;20026;-74
2023/07/28 09:43:07;;;;;;;3.40;2.30;;;;;;;29.61;23.68;99303.88;5006139;28;20034;-74
2023/07/28 09:45:36;;;;;;;2.55;1.40;;;;;;;29.70;25.95;99308.91;4992685;28;20113;-74
2023/07/28 09:48:02;;;;;;;1.67;1.58;;;;;;;29.70;24.69;99295.28;4997256;28;20026;-74
2023/07/28 09:50:31;;;;;;;1.77;1.35;;;;;;;29.74;24.44;99295.16;5008266;28;20030;-74
2023/07/28 09:53:02;;;;;;;2.40;1.70;;;;;;;29.64;24.74;99294.31;5012133;28;20030;-74
2023/07/28 09:55:28;;;;;;;1.73;1.63;;;;;;;29.77;24.36;99282.69;4998246;28;20498;-74
2023/07/28 09:57:56;;;;;;;4.85;2.25;;;;;;;30.08;25.20;99281.88;4992267;28;20416;-74
2023/07/28 10:00:22;;;;;;;4.38;1.88;;;;;;;30.02;23.81;99285.84;5001109;28;20119;-74
2023/07/28 10:02:49;;;;;;;2.58;2.00;;;;;;;29.81;23.88;99279.66;5011844;28;20033;-74
2023/07/28 10:05:15;;;;;;;1.65;1.52;;;;;;;30.10;22.59;99276.44;5009817;28;20026;-74
2023/07/28 10:07:43;;;;;;;1.95;1.75;;;;;;;30.01;23.74;99281.34;5008233;28;20018;-73
2023/07/28 10:10:12;;;;;;;2.28;1.95;;;;;;;30.31;22.76;99270.25;5008959;28;20030;-74
2023/07/28 10:12:49;;;;;;;6.82;2.38;;;;;;;30.34;22.41;99270.09;4999912;28;20034;-74
2023/07/28 10:15:17;;;;;;;2.17;1.80;;;;;;;30.26;21.37;99265.91;5000163;28;20030;-73
2023/07/28 10:17:57;;;;;;;3.55;2.20;;;;;;;30.79;21.71;99261.22;5011710;28;20030;-74
2023/07/28 10:20:38;;;;;;;2.15;1.70;;;;;;;30.31;21.81;99259.53;5004737;28;20057;-74
2023/07/28 10:23:07;;;;;;;3.60;1.60;;;;;;;29.05;21.82;99266.06;4996577;28;20041;-73
2023/07/28 10:25:35;;;;;;;2.15;1.70;;;;;;;29.49;22.18;99252.91;5005354;28;20030;-74
2023/07/28 10:28:02;;;;;;;2.92;2.00;;;;;;;29.64;22.03;99244.53;4998915;28;20034;-74
2023/07/28 10:30:28;;;;;;;2.30;1.73;;;;;;;29.93;22.19;99232.63;5016177;28;20045;-74
2023/07/28 10:32:55;;;;;;;2.92;1.88;;;;;;;30.31;23.66;99227.81;5011117;28;20087;-74
2023/07/28 10:35:26;;;;;;;2.00;1.50;;;;;;;30.05;21.31;99230.13;5009084;28;20089;-74
2023/07/28 10:37:56;;;;;;;2.42;1.80;;;;;;;30.19;21.48;99232.41;5009826;28;20036;-73
2023/07/28 10:40:34;;;;;;;2.17;1.70;;;;;;;30.45;22.63;99220.59;5010132;28;20084;-73
2023/07/28 10:43:01;;;;;;;2.53;2.00;;;;;;;29.77;21.23;99224.25;5011036;28;20060;-73
2023/07/28 10:45:29;;;;;;;2.30;1.63;;;;;;;30.23;23.11;99223.59;5009646;28;20082;-73
2023/07/28 10:47:56;;;;;;;2.03;1.63;;;;;;;30.63;22.56;99219.81;5010999;28;20034;-73
2023/07/28 10:50:23;;;;;;;3.92;2.10;;;;;;;31.05;21.80;99208.91;5010944;28;20168;-73
2023/07/28 10:52:49;;;;;;;1.80;1.70;;;;;;;31.34;20.14;99216.25;5010430;28;20040;-73
2023/07/28 10:55:16;;;;;;;3.78;1.98;;;;;;;31.45;21.33;99207.88;5000775;28;20045;-73
2023/07/28 10:57:44;;;;;;;3.25;1.77;;;;;;;31.50;22.17;99204.31;5007387;28;20313;-73
2023/07/28 11:00:14;;;;;;;3.80;1.58;;;;;;;31.35;19.91;99212.88;5005755;28;20034;-73
2023/07/28 11:02:47;;;;;;;2.10;1.77;;;;;;;31.63;19.50;99204.09;5009482;28;20523;-73
2023/07/28 11:05:19;;;;;;;1.85;1.50;;;;;;;31.76;21.64;99206.78;5001212;28;20029;-75
2023/07/28 11:07:45;;;;;;;2.33;2.13;;;;;;;31.47;20.26;99192.94;5011154;28;20054;-75
2023/07/28 11:10:17;;;;;;;3.72;2.28;;;;;;;31.84;22.36;99197.75;5002908;28;20095;-74
2023/07/28 11:12:44;;;;;;;1.77;1.40;;;;;;;31.70;22.01;99200.06;5015466;28;20030;-75
2023/07/28 11:15:11;;;;;;;2.38;1.95;;;;;;;31.73;22.17;99196.19;5006711;28;20034;-74
2023/07/28 11:17:47;;;;;;;6.07;1.73;;;;;;;31.87;22.30;99193.91;5010495;28;20038;-74
2023/07/28 11:20:17;;;;;;;6.40;2.20;;;;;;;32.20;22.24;99187.28;5010689;28;20433;-74
2023/07/28 11:22:52;;;;;;;2.25;1.95;;;;;;;31.99;21.22;99194.97;5010594;28;20041;-74
2023/07/28 11:25:17;;;;;;;4.05;1.60;;;;;;;32.15;21.45;99180.06;5010989;28;20030;-74
2023/07/28 11:27:46;;;;;;;1.70;1.60;;;;;;;32.18;21.60;99181.19;5009684;28;20026;-74
2023/07/28 11:30:12;;;;;;;3.53;1.60;;;;;;;32.24;21.60;99179.22;5010564;28;20049;-74